This is the latest recevied weather packets stored in our database for station/object SP6DW-13. If no packets are shown the sender has not sent any weather packets the latest 10 day(s).
| Time | Temp. | Humidity | Pressure | Rain* | Wind** | Luminosity | Snow |
|---|---|---|---|---|---|---|---|
| 1777075545 | 4.44° C | 90% | 1018.1 hPa | 0 mm | - | - | - |
| 1777073118 | 3.33° C | 88% | 1018.4 hPa | 0 mm | - | - | - |
| 1777072526 | 3.89° C | 88% | 1018.4 hPa | 0 mm | - | - | - |
| 1777066527 | 4.44° C | 88% | 1019.1 hPa | 0 mm | - | - | - |
| 1777062323 | 6.11° C | 84% | 1019.2 hPa | 0 mm | - | - | - |
| 1777061716 | 5.56° C | 84% | 1019.3 hPa | 0 mm | - | - | - |
| 1777048516 | 9.44° C | 73% | 1019.4 hPa | 0 mm | - | - | - |
| 1777047916 | 9.44° C | 73% | 1019.3 hPa | 0 mm | - | - | - |
| 1777046123 | 8.89° C | 74% | 1019.5 hPa | 0 mm | - | - | - |
| 1777041961 | 8.89° C | 75% | 1020 hPa | 0 mm | - | - | - |
| 1777038315 | 8.33° C | 74% | 1020.2 hPa | 0 mm | - | - | - |
| 1777032927 | 6.67° C | 79% | 1021 hPa | 0 mm | - | - | - |
| 1777032316 | 6.67° C | 78% | 1021.1 hPa | 0 mm | - | - | - |
| 1777030528 | 6.67° C | 79% | 1021.3 hPa | 0 mm | - | - | - |
| 1777027516 | 6.67° C | 79% | 1021.4 hPa | 0 mm | - | - | - |
| 1777026917 | 6.67° C | 78% | 1021.3 hPa | 0 mm | - | - | - |
| 1777026340 | 6.67° C | 78% | 1021.2 hPa | 0 mm | - | - | - |
| 1777025116 | 6.67° C | 78% | 1021.2 hPa | 0 mm | - | - | - |
| 1777022718 | 7.22° C | 75% | 1021 hPa | 0 mm | - | - | - |
| 1777021516 | 7.22° C | 75% | 1021 hPa | 0 mm | - | - | - |
| 1777016728 | 7.22° C | 75% | 1020.7 hPa | 0 mm | - | - | - |
| 1777016128 | 7.22° C | 76% | 1020.7 hPa | 0 mm | - | - | - |
| 1777013716 | 7.22° C | 76% | 1020.7 hPa | 0 mm | - | - | - |
| 1777010716 | 6.67° C | 82% | 1020.7 hPa | 0 mm | - | - | - |
| 1777009528 | 6.67° C | 84% | 1020.5 hPa | 0 mm | - | - | - |
* Rain latest hour (hover to see other rain measurements)
** Current wind speed in m/s (hover to see current wind gust speed)